Etusivu
METAR-TAF:

METAR-TAF

Lentoasemat :

Namsos, Norja

Leveyspiiri: 64-28N, Pituuspiiri: 011-35E, korkeus merenpinnasta: 0 m

Tämänhetkinen sää

Tämä raportti tehtiin 5 tuntia ja 17 minuuttia sitten, kello 20.50 UTC
Tuuli 14 kn etelästä, vaihdellen kaakon ja etelän/lounaan välillä
Lämpötila 6°C
Kosteus 49%
Ilmanpaine 989 hPa
Näkyvyys 10 km tai enemmän
Muutamia pilviä 4200 ft:n korkeudessa
Hajonneita pilviä 5700 ft:n korkeudessa

METAR: ENNM 242050Z 17014KT 130V200 9999 FEW042 BKN057 06/M04 Q0989

Aika: 03:07 (02:07 UTC)


TAF: puuttuu

Säähavainnot ja -ennusteet yli 4000 lentoasemalta (METAR- ja TAF-raportit).

Käytössä olevat sääasemat on merkitty karttaan keltaisilla ja punaisilla pisteillä.

Aseta hiiri pisteen päälle nähdäksesi sääaseman nimen.

Klikkaa sitten nähdäksesi säähavainnot ja -ennusteet.

Kartan vaihtaminen: klikkaa mustalla rastilla varustettuja vihreitä pisteitä, niin voit zoomata sisään; viivalla varustettua vihreää pistettä, niin voit zoomata ulos tai vihreitä nuolia, niin pääset viereisille kartoille.


METAR-TAF: